sensor_id;sensor_type;location;lat;lon;timestamp;pressure;altitude;pressure_sealevel;temperature;humidity
9474;BME280;8865;47.636;7.692;2022-08-01T00:00:39;98377.81;;;20.15;100.00
9474;BME280;8865;47.636;7.692;2022-08-01T00:03:05;98387.16;;;20.11;100.00
9474;BME280;8865;47.636;7.692;2022-08-01T00:05:31;98382.00;;;20.03;100.00
9474;BME280;8865;47.636;7.692;2022-08-01T00:07:58;98382.53;;;19.98;100.00
9474;BME280;8865;47.636;7.692;2022-08-01T00:10:24;98381.91;;;19.96;100.00
9474;BME280;8865;47.636;7.692;2022-08-01T00:12:50;98382.09;;;19.94;100.00
9474;BME280;8865;47.636;7.692;2022-08-01T00:15:16;98371.84;;;19.91;100.00
9474;BME280;8865;47.636;7.692;2022-08-01T00:17:43;98378.53;;;19.87;100.00
9474;BME280;8865;47.636;7.692;2022-08-01T00:20:12;98377.91;;;19.85;100.00
9474;BME280;8865;47.636;7.692;2022-08-01T00:22:38;98379.09;;;19.83;100.00
9474;BME280;8865;47.636;7.692;2022-08-01T00:25:05;98373.97;;;19.81;100.00
9474;BME280;8865;47.636;7.692;2022-08-01T00:27:31;98376.19;;;19.77;100.00
9474;BME280;8865;47.636;7.692;2022-08-01T00:29:57;98384.81;;;19.79;100.00
9474;BME280;8865;47.636;7.692;2022-08-01T00:32:24;98373.53;;;19.77;100.00
9474;BME280;8865;47.636;7.692;2022-08-01T00:34:50;98381.53;;;19.77;100.00
9474;BME280;8865;47.636;7.692;2022-08-01T00:37:16;98381.53;;;19.77;100.00
9474;BME280;8865;47.636;7.692;2022-08-01T00:39:42;98388.19;;;19.73;100.00
9474;BME280;8865;47.636;7.692;2022-08-01T00:42:10;98383.72;;;19.74;100.00
9474;BME280;8865;47.636;7.692;2022-08-01T00:44:36;98387.38;;;19.73;100.00
9474;BME280;8865;47.636;7.692;2022-08-01T00:47:03;98385.09;;;19.70;100.00
9474;BME280;8865;47.636;7.692;2022-08-01T00:49:30;98388.94;;;19.67;100.00
9474;BME280;8865;47.636;7.692;2022-08-01T00:51:56;98388.06;;;19.60;100.00
9474;BME280;8865;47.636;7.692;2022-08-01T00:54:25;98388.81;;;19.54;100.00
9474;BME280;8865;47.636;7.692;2022-08-01T00:56:53;98396.28;;;19.50;100.00
9474;BME280;8865;47.636;7.692;2022-08-01T00:59:21;98384.69;;;19.51;100.00
9474;BME280;8865;47.636;7.692;2022-08-01T01:01:47;98386.03;;;19.47;100.00
9474;BME280;8865;47.636;7.692;2022-08-01T01:04:13;98389.06;;;19.44;100.00
9474;BME280;8865;47.636;7.692;2022-08-01T01:06:51;98388.81;;;19.39;100.00
9474;BME280;8865;47.636;7.692;2022-08-01T01:12:22;98389.94;;;19.30;100.00
9474;BME280;8865;47.636;7.692;2022-08-01T01:17:52;98391.47;;;19.24;100.00
9474;BME280;8865;47.636;7.692;2022-08-01T01:20:25;98389.00;;;19.22;100.00
9474;BME280;8865;47.636;7.692;2022-08-01T01:28:15;98383.63;;;19.16;100.00
9474;BME280;8865;47.636;7.692;2022-08-01T01:30:45;98392.97;;;19.12;100.00
9474;BME280;8865;47.636;7.692;2022-08-01T01:33:13;98398.44;;;19.10;100.00
9474;BME280;8865;47.636;7.692;2022-08-01T01:35:46;98392.06;;;19.04;100.00
9474;BME280;8865;47.636;7.692;2022-08-01T01:38:29;98393.06;;;19.03;100.00
9474;BME280;8865;47.636;7.692;2022-08-01T01:40:58;98391.59;;;19.01;100.00
9474;BME280;8865;47.636;7.692;2022-08-01T01:43:25;98393.25;;;19.02;100.00
9474;BME280;8865;47.636;7.692;2022-08-01T01:45:53;98396.91;;;19.01;100.00
9474;BME280;8865;47.636;7.692;2022-08-01T01:48:20;98400.09;;;18.96;100.00
9474;BME280;8865;47.636;7.692;2022-08-01T01:50:49;98403.13;;;18.93;100.00
9474;BME280;8865;47.636;7.692;2022-08-01T01:53:19;98406.31;;;18.88;100.00
9474;BME280;8865;47.636;7.692;2022-08-01T01:55:50;98405.00;;;18.84;100.00
9474;BME280;8865;47.636;7.692;2022-08-01T01:58:18;98404.72;;;18.79;100.00
9474;BME280;8865;47.636;7.692;2022-08-01T02:00:46;98406.38;;;18.80;100.00
9474;BME280;8865;47.636;7.692;2022-08-01T02:03:14;98404.72;;;18.79;100.00
9474;BME280;8865;47.636;7.692;2022-08-01T02:05:42;98411.03;;;18.78;100.00
9474;BME280;8865;47.636;7.692;2022-08-01T02:08:10;98406.75;;;18.77;100.00
9474;BME280;8865;47.636;7.692;2022-08-01T02:10:39;98405.63;;;18.71;100.00
9474;BME280;8865;47.636;7.692;2022-08-01T02:13:05;98405.00;;;18.69;100.00
9474;BME280;8865;47.636;7.692;2022-08-01T02:15:35;98405.53;;;18.65;100.00
9474;BME280;8865;47.636;7.692;2022-08-01T02:18:05;98406.53;;;18.64;100.00
9474;BME280;8865;47.636;7.692;2022-08-01T02:20:34;98405.91;;;18.62;100.00
9474;BME280;8865;47.636;7.692;2022-08-01T02:23:11;98399.94;;;18.60;100.00
9474;BME280;8865;47.636;7.692;2022-08-01T02:25:42;98406.44;;;18.57;100.00
9474;BME280;8865;47.636;7.692;2022-08-01T02:28:15;98402.31;;;18.54;100.00
9474;BME280;8865;47.636;7.692;2022-08-01T02:30:46;98397.09;;;18.46;100.00
9474;BME280;8865;47.636;7.692;2022-08-01T02:33:23;98403.38;;;18.45;100.00
9474;BME280;8865;47.636;7.692;2022-08-01T02:35:53;98402.75;;;18.43;100.00
9474;BME280;8865;47.636;7.692;2022-08-01T02:38:24;98398.81;;;18.39;100.00
9474;BME280;8865;47.636;7.692;2022-08-01T02:40:52;98404.28;;;18.37;100.00
9474;BME280;8865;47.636;7.692;2022-08-01T02:43:25;98401.19;;;18.34;100.00
9474;BME280;8865;47.636;7.692;2022-08-01T02:45:54;98406.47;;;18.34;100.00
9474;BME280;8865;47.636;7.692;2022-08-01T02:48:22;98410.47;;;18.30;100.00
9474;BME280;8865;47.636;7.692;2022-08-01T02:50:54;98410.66;;;18.28;100.00
9474;BME280;8865;47.636;7.692;2022-08-01T02:53:23;98410.19;;;18.25;100.00
9474;BME280;8865;47.636;7.692;2022-08-01T02:55:51;98415.69;;;18.23;100.00
9474;BME280;8865;47.636;7.692;2022-08-01T02:58:19;98404.41;;;18.21;100.00
9474;BME280;8865;47.636;7.692;2022-08-01T03:00:46;98409.25;;;18.17;100.00
9474;BME280;8865;47.636;7.692;2022-08-01T03:03:13;98407.94;;;18.13;100.00
9474;BME280;8865;47.636;7.692;2022-08-01T03:05:41;98404.03;;;18.09;100.00
9474;BME280;8865;47.636;7.692;2022-08-01T03:08:09;98407.03;;;18.06;100.00
9474;BME280;8865;47.636;7.692;2022-08-01T03:10:37;98403.06;;;18.02;100.00
9474;BME280;8865;47.636;7.692;2022-08-01T03:13:06;98397.31;;;17.98;100.00
9474;BME280;8865;47.636;7.692;2022-08-01T03:15:39;98401.13;;;17.96;100.00
9474;BME280;8865;47.636;7.692;2022-08-01T03:18:09;98402.63;;;17.90;100.00
9474;BME280;8865;47.636;7.692;2022-08-01T03:20:36;98406.59;;;17.86;100.00
9474;BME280;8865;47.636;7.692;2022-08-01T03:23:07;98415.06;;;17.81;100.00
9474;BME280;8865;47.636;7.692;2022-08-01T03:25:36;98407.31;;;17.80;100.00
9474;BME280;8865;47.636;7.692;2022-08-01T03:28:05;98404.66;;;17.80;100.00
9474;BME280;8865;47.636;7.692;2022-08-01T03:30:33;98419.09;;;17.77;100.00
9474;BME280;8865;47.636;7.692;2022-08-01T03:33:01;98415.94;;;17.74;100.00
9474;BME280;8865;47.636;7.692;2022-08-01T03:35:31;98411.84;;;17.71;100.00
9474;BME280;8865;47.636;7.692;2022-08-01T03:38:00;98418.94;;;17.71;100.00
9474;BME280;8865;47.636;7.692;2022-08-01T03:40:53;98416.63;;;17.67;100.00
9474;BME280;8865;47.636;7.692;2022-08-01T03:43:26;98425.09;;;17.63;100.00
9474;BME280;8865;47.636;7.692;2022-08-01T03:46:01;98424.13;;;17.64;100.00
9474;BME280;8865;47.636;7.692;2022-08-01T03:48:31;98420.66;;;17.63;100.00
9474;BME280;8865;47.636;7.692;2022-08-01T03:50:59;98425.94;;;17.63;100.00
9474;BME280;8865;47.636;7.692;2022-08-01T03:53:30;98421.81;;;17.61;100.00
9474;BME280;8865;47.636;7.692;2022-08-01T03:55:59;98427.47;;;17.58;100.00
9474;BME280;8865;47.636;7.692;2022-08-01T03:58:27;98417.22;;;17.55;100.00
9474;BME280;8865;47.636;7.692;2022-08-01T04:00:54;98422.69;;;17.53;100.00
9474;BME280;8865;47.636;7.692;2022-08-01T04:03:20;98424.00;;;17.49;100.00
9474;BME280;8865;47.636;7.692;2022-08-01T04:05:46;98420.91;;;17.45;100.00
9474;BME280;8865;47.636;7.692;2022-08-01T04:08:12;98420.25;;;17.43;100.00
9474;BME280;8865;47.636;7.692;2022-08-01T04:10:38;98429.81;;;17.44;100.00
9474;BME280;8865;47.636;7.692;2022-08-01T04:13:04;98424.88;;;17.41;100.00
9474;BME280;8865;47.636;7.692;2022-08-01T04:15:30;98424.25;;;17.39;100.00
9474;BME280;8865;47.636;7.692;2022-08-01T04:17:56;98432.34;;;17.38;100.00
9474;BME280;8865;47.636;7.692;2022-08-01T04:20:22;98430.38;;;17.31;100.00
9474;BME280;8865;47.636;7.692;2022-08-01T04:22:48;98437.00;;;17.36;100.00
9474;BME280;8865;47.636;7.692;2022-08-01T04:25:34;98438.97;;;17.34;100.00
9474;BME280;8865;47.636;7.692;2022-08-01T04:28:03;98439.81;;;17.34;100.00
9474;BME280;8865;47.636;7.692;2022-08-01T04:30:34;98440.00;;;17.33;100.00
9474;BME280;8865;47.636;7.692;2022-08-01T04:33:04;98442.13;;;17.37;100.00
9474;BME280;8865;47.636;7.692;2022-08-01T04:35:32;98447.41;;;17.37;100.00
9474;BME280;8865;47.636;7.692;2022-08-01T04:38:01;98444.59;;;17.39;100.00
9474;BME280;8865;47.636;7.692;2022-08-01T04:40:28;98446.91;;;17.42;100.00
9474;BME280;8865;47.636;7.692;2022-08-01T04:42:54;98445.41;;;17.39;100.00
9474;BME280;8865;47.636;7.692;2022-08-01T04:45:21;98446.22;;;17.40;100.00
9474;BME280;8865;47.636;7.692;2022-08-01T04:47:47;98452.03;;;17.43;100.00
9474;BME280;8865;47.636;7.692;2022-08-01T04:50:14;98451.19;;;17.43;100.00
9474;BME280;8865;47.636;7.692;2022-08-01T04:52:41;98451.84;;;17.45;100.00
9474;BME280;8865;47.636;7.692;2022-08-01T04:55:08;98453.31;;;17.47;100.00
9474;BME280;8865;47.636;7.692;2022-08-01T04:57:36;98448.88;;;17.48;100.00
9474;BME280;8865;47.636;7.692;2022-08-01T05:00:03;98456.75;;;17.56;100.00
9474;BME280;8865;47.636;7.692;2022-08-01T05:02:30;98450.78;;;17.62;100.00
9474;BME280;8865;47.636;7.692;2022-08-01T05:04:56;98449.28;;;17.68;100.00
9474;BME280;8865;47.636;7.692;2022-08-01T05:07:22;98454.22;;;17.71;100.00
9474;BME280;8865;47.636;7.692;2022-08-01T05:09:49;98452.50;;;17.78;100.00
9474;BME280;8865;47.636;7.692;2022-08-01T05:12:16;98455.47;;;17.83;100.00
9474;BME280;8865;47.636;7.692;2022-08-01T05:14:43;98449.66;;;17.88;100.00
9474;BME280;8865;47.636;7.692;2022-08-01T05:17:09;98444.69;;;17.93;100.00
9474;BME280;8865;47.636;7.692;2022-08-01T05:19:37;98446.28;;;18.02;100.00
9474;BME280;8865;47.636;7.692;2022-08-01T05:22:06;98444.13;;;18.06;100.00
9474;BME280;8865;47.636;7.692;2022-08-01T05:24:35;98445.38;;;18.18;100.00
9474;BME280;8865;47.636;7.692;2022-08-01T05:27:01;98446.66;;;18.23;100.00
9474;BME280;8865;47.636;7.692;2022-08-01T05:29:27;98443.59;;;18.34;100.00
9474;BME280;8865;47.636;7.692;2022-08-01T05:31:53;98442.13;;;18.31;100.00
9474;BME280;8865;47.636;7.692;2022-08-01T05:34:20;98444.53;;;18.41;100.00
9474;BME280;8865;47.636;7.692;2022-08-01T05:36:46;98441.47;;;18.52;100.00
9474;BME280;8865;47.636;7.692;2022-08-01T05:39:13;98438.38;;;18.64;100.00
9474;BME280;8865;47.636;7.692;2022-08-01T05:41:39;98433.16;;;18.70;100.00
9474;BME280;8865;47.636;7.692;2022-08-01T05:44:06;98440.03;;;18.80;100.00
9474;BME280;8865;47.636;7.692;2022-08-01T05:46:32;98432.84;;;18.88;100.00
9474;BME280;8865;47.636;7.692;2022-08-01T05:49:00;98433.25;;;19.00;100.00
9474;BME280;8865;47.636;7.692;2022-08-01T05:51:27;98438.09;;;19.12;100.00
9474;BME280;8865;47.636;7.692;2022-08-01T05:53:53;98433.78;;;19.25;100.00
9474;BME280;8865;47.636;7.692;2022-08-01T05:56:20;98437.38;;;19.33;100.00
9474;BME280;8865;47.636;7.692;2022-08-01T05:58:47;98433.97;;;19.39;100.00
9474;BME280;8865;47.636;7.692;2022-08-01T06:01:13;98430.22;;;19.48;100.00
9474;BME280;8865;47.636;7.692;2022-08-01T06:03:39;98422.59;;;19.60;100.00
9474;BME280;8865;47.636;7.692;2022-08-01T06:06:05;98434.56;;;19.71;100.00
9474;BME280;8865;47.636;7.692;2022-08-01T06:08:31;98427.03;;;19.74;100.00
9474;BME280;8865;47.636;7.692;2022-08-01T06:10:57;98430.69;;;19.88;100.00
9474;BME280;8865;47.636;7.692;2022-08-01T06:13:24;98424.25;;;19.97;100.00
9474;BME280;8865;47.636;7.692;2022-08-01T06:15:50;98434.78;;;20.06;100.00
9474;BME280;8865;47.636;7.692;2022-08-01T06:18:16;98423.88;;;20.22;100.00
9474;BME280;8865;47.636;7.692;2022-08-01T06:20:42;98424.78;;;20.29;100.00
9474;BME280;8865;47.636;7.692;2022-08-01T06:23:09;98431.59;;;20.39;100.00
9474;BME280;8865;47.636;7.692;2022-08-01T06:25:35;98424.94;;;20.49;100.00
9474;BME280;8865;47.636;7.692;2022-08-01T06:28:01;98429.34;;;20.64;100.00
9474;BME280;8865;47.636;7.692;2022-08-01T06:30:28;98420.19;;;20.66;100.00
9474;BME280;8865;47.636;7.692;2022-08-01T06:32:54;98419.22;;;20.74;100.00
9474;BME280;8865;47.636;7.692;2022-08-01T06:35:21;98420.16;;;20.88;100.00
9474;BME280;8865;47.636;7.692;2022-08-01T06:37:47;98419.41;;;21.01;100.00
9474;BME280;8865;47.636;7.692;2022-08-01T06:40:15;98418.06;;;21.12;100.00
9474;BME280;8865;47.636;7.692;2022-08-01T06:42:41;98414.44;;;21.26;100.00
9474;BME280;8865;47.636;7.692;2022-08-01T06:45:09;98419.59;;;21.34;100.00
9474;BME280;8865;47.636;7.692;2022-08-01T06:47:38;98415.34;;;21.47;100.00
9474;BME280;8865;47.636;7.692;2022-08-01T06:50:07;98409.91;;;21.62;100.00
9474;BME280;8865;47.636;7.692;2022-08-01T06:52:33;98409.94;;;21.75;100.00
9474;BME280;8865;47.636;7.692;2022-08-01T06:54:59;98408.75;;;21.84;100.00
9474;BME280;8865;47.636;7.692;2022-08-01T06:57:25;98410.19;;;21.93;100.00
9474;BME280;8865;47.636;7.692;2022-08-01T06:59:51;98404.66;;;22.02;100.00
9474;BME280;8865;47.636;7.692;2022-08-01T07:02:17;98402.44;;;22.12;100.00
9474;BME280;8865;47.636;7.692;2022-08-01T07:04:44;98401.81;;;22.23;100.00
9474;BME280;8865;47.636;7.692;2022-08-01T07:07:09;98403.53;;;22.38;100.00
9474;BME280;8865;47.636;7.692;2022-08-01T07:09:36;98402.50;;;22.45;100.00
9474;BME280;8865;47.636;7.692;2022-08-01T07:12:03;98405.16;;;22.52;100.00
9474;BME280;8865;47.636;7.692;2022-08-01T07:14:29;98405.75;;;22.68;100.00
9474;BME280;8865;47.636;7.692;2022-08-01T07:16:55;98404.31;;;22.78;100.00
9474;BME280;8865;47.636;7.692;2022-08-01T07:19:21;98400.81;;;22.85;100.00
9474;BME280;8865;47.636;7.692;2022-08-01T07:21:47;98396.28;;;22.92;100.00
9474;BME280;8865;47.636;7.692;2022-08-01T07:24:13;98395.41;;;23.05;100.00
9474;BME280;8865;47.636;7.692;2022-08-01T07:26:45;98401.41;;;23.13;100.00
9474;BME280;8865;47.636;7.692;2022-08-01T07:29:11;98395.38;;;23.31;100.00
9474;BME280;8865;47.636;7.692;2022-08-01T07:31:37;98389.16;;;23.44;100.00
9474;BME280;8865;47.636;7.692;2022-08-01T07:34:03;98393.00;;;23.55;100.00
9474;BME280;8865;47.636;7.692;2022-08-01T07:36:29;98383.06;;;23.69;100.00
9474;BME280;8865;47.636;7.692;2022-08-01T07:38:55;98378.72;;;23.75;100.00
9474;BME280;8865;47.636;7.692;2022-08-01T07:41:22;98378.47;;;23.83;100.00
9474;BME280;8865;47.636;7.692;2022-08-01T07:43:48;98380.91;;;23.91;100.00
9474;BME280;8865;47.636;7.692;2022-08-01T07:46:15;98375.91;;;24.01;100.00
9474;BME280;8865;47.636;7.692;2022-08-01T07:48:42;98373.16;;;24.15;100.00
9474;BME280;8865;47.636;7.692;2022-08-01T07:51:08;98379.06;;;24.23;100.00
9474;BME280;8865;47.636;7.692;2022-08-01T07:53:36;98375.94;;;24.27;100.00
9474;BME280;8865;47.636;7.692;2022-08-01T07:56:03;98364.81;;;24.30;100.00
9474;BME280;8865;47.636;7.692;2022-08-01T07:58:32;98362.44;;;24.40;100.00
9474;BME280;8865;47.636;7.692;2022-08-01T08:00:58;98360.91;;;24.51;100.00
9474;BME280;8865;47.636;7.692;2022-08-01T08:03:24;98360.81;;;24.64;96.07
9474;BME280;8865;47.636;7.692;2022-08-01T08:05:50;98353.53;;;24.71;97.09
9474;BME280;8865;47.636;7.692;2022-08-01T08:08:16;98363.28;;;24.84;93.51
9474;BME280;8865;47.636;7.692;2022-08-01T08:10:44;98359.13;;;24.88;95.76
9474;BME280;8865;47.636;7.692;2022-08-01T08:13:10;98347.97;;;24.91;92.43
9474;BME280;8865;47.636;7.692;2022-08-01T08:15:36;98353.38;;;25.03;92.13
9474;BME280;8865;47.636;7.692;2022-08-01T08:18:03;98348.34;;;24.95;86.47
9474;BME280;8865;47.636;7.692;2022-08-01T08:20:30;98349.53;;;25.18;87.33
9474;BME280;8865;47.636;7.692;2022-08-01T08:22:56;98351.88;;;25.26;86.67
9474;BME280;8865;47.636;7.692;2022-08-01T08:25:25;98349.53;;;25.36;85.55
9474;BME280;8865;47.636;7.692;2022-08-01T08:27:52;98347.72;;;25.48;86.53
9474;BME280;8865;47.636;7.692;2022-08-01T08:30:18;98339.72;;;25.60;91.14
9474;BME280;8865;47.636;7.692;2022-08-01T08:32:44;98346.31;;;25.76;90.36
9474;BME280;8865;47.636;7.692;2022-08-01T08:35:10;98346.22;;;25.95;83.35
9474;BME280;8865;47.636;7.692;2022-08-01T08:37:37;98340.78;;;26.01;82.60
9474;BME280;8865;47.636;7.692;2022-08-01T08:40:04;98335.50;;;25.95;79.69
9474;BME280;8865;47.636;7.692;2022-08-01T08:42:30;98339.28;;;26.06;79.33
9474;BME280;8865;47.636;7.692;2022-08-01T08:44:56;98345.84;;;26.22;85.27
9474;BME280;8865;47.636;7.692;2022-08-01T08:47:24;98338.16;;;26.37;78.73
9474;BME280;8865;47.636;7.692;2022-08-01T08:49:53;98351.94;;;26.52;79.31
9474;BME280;8865;47.636;7.692;2022-08-01T08:52:20;98336.75;;;26.58;73.54
9474;BME280;8865;47.636;7.692;2022-08-01T08:54:47;98340.03;;;26.60;73.41
9474;BME280;8865;47.636;7.692;2022-08-01T08:57:14;98344.94;;;26.51;72.62
9474;BME280;8865;47.636;7.692;2022-08-01T08:59:42;98339.09;;;26.54;73.00
9474;BME280;8865;47.636;7.692;2022-08-01T09:02:09;98337.44;;;26.65;74.88
9474;BME280;8865;47.636;7.692;2022-08-01T09:04:36;98340.84;;;26.84;79.70
9474;BME280;8865;47.636;7.692;2022-08-01T09:07:04;98341.06;;;26.95;68.27
9474;BME280;8865;47.636;7.692;2022-08-01T09:09:31;98334.47;;;27.14;65.71
9474;BME280;8865;47.636;7.692;2022-08-01T09:11:57;98341.94;;;27.24;65.26
9474;BME280;8865;47.636;7.692;2022-08-01T09:14:24;98340.88;;;27.25;63.84
9474;BME280;8865;47.636;7.692;2022-08-01T09:17:09;98344.66;;;27.53;71.52
9474;BME280;8865;47.636;7.692;2022-08-01T09:22:16;98339.31;;;27.70;58.55
9474;BME280;8865;47.636;7.692;2022-08-01T09:25:07;98336.66;;;27.87;57.93
9474;BME280;8865;47.636;7.692;2022-08-01T09:27:35;98337.50;;;28.04;57.81
9474;BME280;8865;47.636;7.692;2022-08-01T09:30:10;98334.81;;;28.21;55.65
9474;BME280;8865;47.636;7.692;2022-08-01T09:33:01;98334.97;;;28.31;56.89
9474;BME280;8865;47.636;7.692;2022-08-01T09:35:35;98328.44;;;28.27;55.24
9474;BME280;8865;47.636;7.692;2022-08-01T09:40:52;98316.31;;;28.81;54.55
9474;BME280;8865;47.636;7.692;2022-08-01T09:43:21;98318.97;;;29.20;59.20
9474;BME280;8865;47.636;7.692;2022-08-01T09:45:47;98325.63;;;29.62;52.97
9474;BME280;8865;47.636;7.692;2022-08-01T09:48:13;98318.19;;;29.74;54.18
9474;BME280;8865;47.636;7.692;2022-08-01T09:50:44;98325.53;;;30.11;59.25
9474;BME280;8865;47.636;7.692;2022-08-01T09:53:11;98318.16;;;30.39;53.85
9474;BME280;8865;47.636;7.692;2022-08-01T09:55:38;98317.44;;;30.49;51.75
9474;BME280;8865;47.636;7.692;2022-08-01T09:58:05;98320.53;;;30.62;51.22
9474;BME280;8865;47.636;7.692;2022-08-01T10:00:32;98317.91;;;30.83;49.89
9474;BME280;8865;47.636;7.692;2022-08-01T10:02:59;98311.34;;;31.27;48.77
9474;BME280;8865;47.636;7.692;2022-08-01T10:05:42;98315.53;;;31.65;47.04
9474;BME280;8865;47.636;7.692;2022-08-01T10:08:08;98310.09;;;31.55;43.59
9474;BME280;8865;47.636;7.692;2022-08-01T10:10:36;98308.50;;;31.90;43.29
9474;BME280;8865;47.636;7.692;2022-08-01T10:13:03;98308.75;;;32.30;41.16
9474;BME280;8865;47.636;7.692;2022-08-01T10:15:30;98306.72;;;32.92;42.25
9474;BME280;8865;47.636;7.692;2022-08-01T10:17:59;98297.63;;;33.27;40.65
9474;BME280;8865;47.636;7.692;2022-08-01T10:20:28;98297.09;;;33.65;41.17
9474;BME280;8865;47.636;7.692;2022-08-01T10:22:55;98302.09;;;34.22;40.06
9474;BME280;8865;47.636;7.692;2022-08-01T10:25:27;98294.19;;;34.55;36.97
9474;BME280;8865;47.636;7.692;2022-08-01T10:27:54;98288.97;;;35.26;33.97
9474;BME280;8865;47.636;7.692;2022-08-01T10:30:23;98283.91;;;35.57;33.54
9474;BME280;8865;47.636;7.692;2022-08-01T10:32:50;98278.44;;;36.70;31.67
9474;BME280;8865;47.636;7.692;2022-08-01T10:35:18;98278.50;;;38.02;31.20
9474;BME280;8865;47.636;7.692;2022-08-01T10:37:46;98275.03;;;39.08;28.96
9474;BME280;8865;47.636;7.692;2022-08-01T10:40:13;98283.69;;;40.24;27.62
9474;BME280;8865;47.636;7.692;2022-08-01T10:42:42;98279.19;;;41.17;25.30
9474;BME280;8865;47.636;7.692;2022-08-01T10:45:13;98273.47;;;41.86;22.68
9474;BME280;8865;47.636;7.692;2022-08-01T10:47:53;98271.50;;;42.44;21.89
9474;BME280;8865;47.636;7.692;2022-08-01T10:50:44;98279.44;;;42.46;21.66
9474;BME280;8865;47.636;7.692;2022-08-01T10:53:16;98264.03;;;42.82;21.64
9474;BME280;8865;47.636;7.692;2022-08-01T11:01:20;98261.94;;;40.18;23.50
9474;BME280;8865;47.636;7.692;2022-08-01T11:04:09;98264.72;;;39.05;24.40
9474;BME280;8865;47.636;7.692;2022-08-01T11:06:41;98257.72;;;36.41;26.45
9474;BME280;8865;47.636;7.692;2022-08-01T11:11:57;98265.75;;;34.66;29.82
9474;BME280;8865;47.636;7.692;2022-08-01T11:14:23;98255.84;;;34.51;30.50
9474;BME280;8865;47.636;7.692;2022-08-01T11:16:49;98258.88;;;34.74;29.58
9474;BME280;8865;47.636;7.692;2022-08-01T11:19:15;98248.06;;;35.31;29.56
9474;BME280;8865;47.636;7.692;2022-08-01T11:27:31;98232.78;;;37.12;28.72
9474;BME280;8865;47.636;7.692;2022-08-01T11:32:50;98224.53;;;37.03;26.83
9474;BME280;8865;47.636;7.692;2022-08-01T11:35:17;98229.06;;;36.10;26.48
9474;BME280;8865;47.636;7.692;2022-08-01T11:37:45;98226.44;;;36.19;25.70
9474;BME280;8865;47.636;7.692;2022-08-01T11:42:47;98208.44;;;37.02;27.99
9474;BME280;8865;47.636;7.692;2022-08-01T11:45:14;98208.03;;;37.53;26.11
9474;BME280;8865;47.636;7.692;2022-08-01T11:47:49;98207.06;;;37.49;25.33
9474;BME280;8865;47.636;7.692;2022-08-01T11:53:02;98207.25;;;38.38;25.16
9474;BME280;8865;47.636;7.692;2022-08-01T11:55:29;98205.34;;;38.48;25.57
9474;BME280;8865;47.636;7.692;2022-08-01T11:58:03;98215.69;;;38.68;24.88
9474;BME280;8865;47.636;7.692;2022-08-01T12:00:29;98213.78;;;38.95;24.60
9474;BME280;8865;47.636;7.692;2022-08-01T12:03:14;98207.53;;;39.21;25.82
9474;BME280;8865;47.636;7.692;2022-08-01T12:05:43;98201.72;;;38.96;24.21
9474;BME280;8865;47.636;7.692;2022-08-01T12:08:09;98199.94;;;39.53;25.51
9474;BME280;8865;47.636;7.692;2022-08-01T12:10:36;98203.69;;;39.57;22.91
9474;BME280;8865;47.636;7.692;2022-08-01T12:13:06;98195.22;;;38.66;22.09
9474;BME280;8865;47.636;7.692;2022-08-01T12:15:34;98200.09;;;38.95;22.93
9474;BME280;8865;47.636;7.692;2022-08-01T12:18:02;98192.47;;;37.54;24.04
9474;BME280;8865;47.636;7.692;2022-08-01T12:20:35;98180.03;;;37.70;24.74
9474;BME280;8865;47.636;7.692;2022-08-01T12:23:04;98178.47;;;38.58;24.62
9474;BME280;8865;47.636;7.692;2022-08-01T12:25:33;98180.16;;;39.29;23.80
9474;BME280;8865;47.636;7.692;2022-08-01T12:28:01;98181.25;;;39.55;23.58
9474;BME280;8865;47.636;7.692;2022-08-01T12:30:29;98178.53;;;39.93;22.61
9474;BME280;8865;47.636;7.692;2022-08-01T12:32:57;98180.75;;;40.17;22.85
9474;BME280;8865;47.636;7.692;2022-08-01T12:35:25;98189.13;;;40.21;23.79
9474;BME280;8865;47.636;7.692;2022-08-01T12:38:20;98178.72;;;39.15;23.78
9474;BME280;8865;47.636;7.692;2022-08-01T12:40:50;98170.63;;;39.44;24.89
9474;BME280;8865;47.636;7.692;2022-08-01T12:43:18;98174.53;;;39.91;23.23
9474;BME280;8865;47.636;7.692;2022-08-01T12:45:47;98177.97;;;39.70;20.16
9474;BME280;8865;47.636;7.692;2022-08-01T12:48:16;98173.22;;;40.65;21.86
9474;BME280;8865;47.636;7.692;2022-08-01T12:50:47;98171.28;;;40.66;20.65
9474;BME280;8865;47.636;7.692;2022-08-01T12:53:14;98168.84;;;41.28;20.41
9474;BME280;8865;47.636;7.692;2022-08-01T12:55:52;98172.94;;;42.01;19.41
9474;BME280;8865;47.636;7.692;2022-08-01T12:58:19;98174.22;;;42.40;19.38
9474;BME280;8865;47.636;7.692;2022-08-01T13:00:47;98169.16;;;43.08;19.64
9474;BME280;8865;47.636;7.692;2022-08-01T13:03:18;98157.66;;;43.18;18.64
9474;BME280;8865;47.636;7.692;2022-08-01T13:05:51;98166.69;;;43.03;20.26
9474;BME280;8865;47.636;7.692;2022-08-01T13:08:22;98162.41;;;41.90;19.43
9474;BME280;8865;47.636;7.692;2022-08-01T13:10:49;98154.84;;;41.20;19.82
9474;BME280;8865;47.636;7.692;2022-08-01T13:13:17;98163.59;;;41.68;20.96
9474;BME280;8865;47.636;7.692;2022-08-01T13:15:44;98151.97;;;42.08;20.32
9474;BME280;8865;47.636;7.692;2022-08-01T13:18:30;98146.78;;;42.56;19.72
9474;BME280;8865;47.636;7.692;2022-08-01T13:21:17;98153.78;;;43.35;19.96
9474;BME280;8865;47.636;7.692;2022-08-01T13:24:06;98150.94;;;43.92;18.77
9474;BME280;8865;47.636;7.692;2022-08-01T13:26:47;98152.84;;;44.58;17.99
9474;BME280;8865;47.636;7.692;2022-08-01T13:29:18;98151.84;;;45.02;16.94
9474;BME280;8865;47.636;7.692;2022-08-01T13:31:45;98153.41;;;45.42;17.22
9474;BME280;8865;47.636;7.692;2022-08-01T13:34:11;98137.88;;;45.57;16.94
9474;BME280;8865;47.636;7.692;2022-08-01T13:36:38;98137.31;;;45.71;16.75
9474;BME280;8865;47.636;7.692;2022-08-01T13:39:05;98139.59;;;45.89;16.68
9474;BME280;8865;47.636;7.692;2022-08-01T13:41:51;98146.91;;;46.01;16.18
9474;BME280;8865;47.636;7.692;2022-08-01T13:44:18;98135.53;;;45.17;15.60
9474;BME280;8865;47.636;7.692;2022-08-01T13:46:44;98128.81;;;45.37;15.99
9474;BME280;8865;47.636;7.692;2022-08-01T13:49:13;98132.44;;;45.88;15.52
9474;BME280;8865;47.636;7.692;2022-08-01T13:51:39;98130.66;;;46.26;15.95
9474;BME280;8865;47.636;7.692;2022-08-01T13:54:05;98133.19;;;46.34;14.82
9474;BME280;8865;47.636;7.692;2022-08-01T13:56:32;98141.22;;;46.43;15.35
9474;BME280;8865;47.636;7.692;2022-08-01T13:58:58;98128.53;;;45.42;14.58
9474;BME280;8865;47.636;7.692;2022-08-01T14:01:24;98127.81;;;44.67;15.68